Time;durP1;ratioP1;P1;durP2;ratioP2;P2;SDS_P1;SDS_P2;PMS_P1;PMS_P2;Temp;Humidity;BMP_temperature;BMP_pressure;BME280_temperature;BME280_humidity;BME280_pressure;Samples;Min_cycle;Max_cycle;Signal;HPM_P1;HPM_P2
2022/04/23 00:00:35;;;;;;;20.02;12.45;;;;;;;2.96;100.00;99139.41;5118715;28;20047;-52
2022/04/23 00:03:19;;;;;;;18.00;12.15;;;;;;;2.99;100.00;99138.50;5120791;28;20511;-52
2022/04/23 00:06:04;;;;;;;17.70;11.75;;;;;;;2.99;100.00;99138.50;5121232;28;20040;-52
2022/04/23 00:08:48;;;;;;;19.50;11.93;;;;;;;3.00;100.00;99132.50;5122593;28;20075;-52
2022/04/23 00:11:34;;;;;;;23.27;12.40;;;;;;;2.99;100.00;99141.09;5122004;28;20628;-52
2022/04/23 00:14:19;;;;;;;23.98;13.45;;;;;;;2.99;100.00;99135.94;5123840;27;20039;-51
2022/04/23 00:17:03;;;;;;;21.08;14.43;;;;;;;3.09;100.00;99136.72;5124758;27;20047;-52
2022/04/23 00:19:48;;;;;;;22.00;13.68;;;;;;;3.06;100.00;99132.47;5125728;27;20073;-52
2022/04/23 00:22:35;;;;;;;21.70;14.32;;;;;;;3.03;100.00;99132.47;5125485;27;20051;-52
2022/04/23 00:25:20;;;;;;;20.80;14.02;;;;;;;3.01;100.00;99135.06;5125419;27;20083;-52
2022/04/23 00:28:05;;;;;;;19.48;13.52;;;;;;;2.96;100.00;99123.03;5108376;27;20043;-52
2022/04/23 00:30:52;;;;;;;23.90;16.40;;;;;;;3.06;100.00;99126.44;5125624;27;20047;-51
2022/04/23 00:33:37;;;;;;;20.73;14.63;;;;;;;3.07;100.00;99122.97;5125561;27;20052;-51
2022/04/23 00:36:23;;;;;;;23.30;15.52;;;;;;;3.00;100.00;99115.22;5125375;27;20050;-52
2022/04/23 00:39:07;;;;;;;20.33;14.43;;;;;;;3.04;100.00;99114.34;5125773;27;20051;-51
2022/04/23 00:41:57;;;;;;;21.70;13.93;;;;;;;3.06;100.00;99121.25;5103281;27;20051;-51
2022/04/23 00:44:42;;;;;;;21.08;14.25;;;;;;;3.07;100.00;99126.41;5122732;27;20054;-51
2022/04/23 00:47:26;;;;;;;27.23;15.90;;;;;;;3.06;100.00;99126.44;5125230;27;20057;-52
2022/04/23 00:50:11;;;;;;;22.60;14.60;;;;;;;3.03;100.00;99122.97;5125715;27;20043;-52
2022/04/23 00:53:02;;;;;;;21.55;15.48;;;;;;;2.99;100.00;99107.47;5125191;27;20042;-52
2022/04/23 00:55:47;;;;;;;19.98;13.80;;;;;;;3.04;100.00;99116.06;5126187;27;21098;-52
2022/04/23 00:58:31;;;;;;;22.15;14.40;;;;;;;2.99;100.00;99107.47;5125192;27;20129;-52
2022/04/23 01:01:18;;;;;;;21.58;14.52;;;;;;;3.00;100.00;99112.66;5124590;27;20055;-52
2022/04/23 01:04:05;;;;;;;20.67;13.50;;;;;;;3.01;100.00;99111.78;5125430;27;20047;-51
2022/04/23 01:06:49;;;;;;;19.27;13.27;;;;;;;3.00;100.00;99114.38;5124689;27;20051;-51
2022/04/23 01:09:34;;;;;;;19.17;12.68;;;;;;;2.90;100.00;99123.06;5125367;27;20078;-52
2022/04/23 01:12:19;;;;;;;19.75;13.38;;;;;;;2.91;100.00;99117.00;5125617;27;20058;-52
2022/04/23 01:15:05;;;;;;;20.13;13.75;;;;;;;2.90;100.00;99115.31;5123980;27;20035;-52
2022/04/23 01:17:50;;;;;;;24.13;13.38;;;;;;;2.85;100.00;99115.31;5124530;27;20039;-52
2022/04/23 01:20:36;;;;;;;22.25;14.18;;;;;;;2.76;100.00;99116.22;5124182;27;20481;-51
2022/04/23 01:23:20;;;;;;;22.30;14.38;;;;;;;2.80;100.00;99119.66;5125062;27;20039;-51
2022/04/23 01:26:05;;;;;;;20.48;12.50;;;;;;;2.78;100.00;99118.78;5123500;27;20451;-52
2022/04/23 01:28:50;;;;;;;21.92;14.88;;;;;;;2.69;100.00;99119.69;5124311;27;20054;-52
2022/04/23 01:31:34;;;;;;;25.88;15.45;;;;;;;2.72;100.00;99111.91;5124754;27;20035;-52
2022/04/23 01:34:19;;;;;;;23.40;15.55;;;;;;;2.67;100.00;99102.47;5125144;27;20050;-52
2022/04/23 01:37:03;;;;;;;24.23;16.38;;;;;;;2.75;100.00;99111.06;5124777;27;20059;-52
2022/04/23 01:39:48;;;;;;;25.10;16.10;;;;;;;2.73;100.00;99111.06;5124203;27;20587;-51
2022/04/23 01:42:32;;;;;;;27.17;17.83;;;;;;;2.67;100.00;99107.66;5124449;27;20070;-52
2022/04/23 01:45:17;;;;;;;24.73;16.38;;;;;;;2.71;100.00;99105.03;5123980;27;20378;-52
2022/04/23 01:48:01;;;;;;;24.75;16.88;;;;;;;2.66;100.00;99100.75;5124061;27;20051;-52
2022/04/23 01:50:46;;;;;;;24.77;17.25;;;;;;;2.66;100.00;99093.84;5123791;27;20067;-52
2022/04/23 01:53:30;;;;;;;28.27;18.75;;;;;;;2.70;100.00;99100.75;5124344;27;20059;-52
2022/04/23 01:56:15;;;;;;;29.80;19.20;;;;;;;2.71;100.00;99099.88;5123920;27;20054;-52
2022/04/23 01:58:59;;;;;;;30.77;19.98;;;;;;;2.72;100.00;99098.13;5123469;27;20893;-52
2022/04/23 02:01:44;;;;;;;33.72;23.08;;;;;;;2.66;100.00;99085.22;5123173;27;20507;-52
2022/04/23 02:04:28;;;;;;;33.28;22.13;;;;;;;2.73;100.00;99099.84;5124448;27;20481;-52
2022/04/23 02:07:13;;;;;;;31.35;19.90;;;;;;;2.83;100.00;99100.66;5123342;27;20043;-52
2022/04/23 02:09:57;;;;;;;32.40;22.25;;;;;;;2.75;100.00;99098.97;5123706;27;20099;-52
2022/04/23 02:12:43;;;;;;;31.67;21.02;;;;;;;2.86;100.00;99093.78;5124174;27;20046;-52
2022/04/23 02:15:27;;;;;;;30.88;20.83;;;;;;;2.89;100.00;99101.47;5123170;27;20137;-52
2022/04/23 02:18:13;;;;;;;30.42;21.25;;;;;;;2.98;100.00;99100.59;5122957;27;20047;-52
2022/04/23 02:20:58;;;;;;;35.53;22.50;;;;;;;2.97;100.00;99104.03;5123567;27;20047;-52
2022/04/23 02:23:43;;;;;;;29.73;20.70;;;;;;;3.01;100.00;99101.41;5123908;27;20837;-51
2022/04/23 02:26:28;;;;;;;29.02;20.13;;;;;;;3.00;100.00;99104.03;5123249;27;20522;-52
2022/04/23 02:29:12;;;;;;;31.95;21.00;;;;;;;2.98;100.00;99098.84;5123435;27;20610;-51
2022/04/23 02:31:57;;;;;;;29.58;21.20;;;;;;;2.98;100.00;99100.59;5123054;27;20047;-52
2022/04/23 02:34:41;;;;;;;28.92;19.90;;;;;;;2.96;100.00;99098.03;5123240;27;20051;-52
2022/04/23 02:37:27;;;;;;;30.63;21.58;;;;;;;2.95;100.00;99090.25;5123135;27;20066;-52
2022/04/23 02:40:13;;;;;;;29.80;20.77;;;;;;;2.91;100.00;99097.16;5123073;27;20039;-52
2022/04/23 02:42:58;;;;;;;32.22;22.27;;;;;;;2.81;100.00;99086.00;5122731;27;20055;-52
2022/04/23 02:45:42;;;;;;;29.27;19.67;;;;;;;2.81;100.00;99090.34;5122933;27;20051;-51
2022/04/23 02:48:28;;;;;;;30.52;20.40;;;;;;;2.77;100.00;99094.66;5121985;27;20428;-52
2022/04/23 02:51:15;;;;;;;30.77;21.38;;;;;;;2.71;100.00;99094.69;5122554;27;20039;-51
2022/04/23 02:54:00;;;;;;;32.22;21.98;;;;;;;2.70;100.00;99095.56;5122936;27;20137;-52
2022/04/23 02:56:45;;;;;;;30.17;21.65;;;;;;;2.69;100.00;99091.25;5123637;27;20051;-51
2022/04/23 02:59:29;;;;;;;32.42;22.30;;;;;;;2.61;100.00;99087.00;5123047;27;20043;-52
2022/04/23 03:02:14;;;;;;;36.42;24.77;;;;;;;2.57;100.00;99087.00;5121863;27;20221;-52
2022/04/23 03:04:58;;;;;;;35.63;24.17;;;;;;;2.56;100.00;99084.41;5122125;27;20055;-52
2022/04/23 03:07:44;;;;;;;40.17;27.80;;;;;;;2.46;100.00;99078.41;5122619;27;20046;-51
2022/04/23 03:10:30;;;;;;;37.58;25.95;;;;;;;2.56;100.00;99089.56;5121938;27;20051;-51
2022/04/23 03:13:15;;;;;;;36.30;26.23;;;;;;;2.61;100.00;99097.34;5122614;27;20035;-52
2022/04/23 03:16:00;;;;;;;37.20;26.50;;;;;;;2.54;100.00;99087.00;5121962;27;20502;-51
2022/04/23 03:18:45;;;;;;;35.00;25.80;;;;;;;2.61;100.00;99093.03;5104361;27;20051;-51
2022/04/23 03:21:29;;;;;;;39.97;25.13;;;;;;;2.62;100.00;99093.88;5121772;27;20047;-52
2022/04/23 03:24:14;;;;;;;36.20;25.63;;;;;;;2.62;100.00;99093.88;5122216;27;20054;-52
2022/04/23 03:26:58;;;;;;;38.83;27.90;;;;;;;2.65;100.00;99096.44;5122871;28;20043;-52
2022/04/23 03:29:44;;;;;;;43.05;27.25;;;;;;;2.62;100.00;99102.47;5122456;28;20043;-52
2022/04/23 03:32:28;;;;;;;36.58;26.05;;;;;;;2.57;100.00;99093.91;5121530;28;20066;-52
2022/04/23 03:35:14;;;;;;;41.70;28.40;;;;;;;2.58;100.00;99104.22;5121585;28;20043;-51
2022/04/23 03:37:58;;;;;;;34.90;26.05;;;;;;;2.55;100.00;99106.81;5120661;28;20047;-52
2022/04/23 03:40:43;;;;;;;40.42;28.67;;;;;;;2.51;100.00;99107.69;5121770;28;20051;-51
2022/04/23 03:43:27;;;;;;;43.45;29.17;;;;;;;2.52;100.00;99114.59;5105427;28;20524;-52
2022/04/23 03:46:12;;;;;;;41.15;26.77;;;;;;;2.50;100.00;99112.88;5122497;28;20066;-52
2022/04/23 03:48:56;;;;;;;39.30;25.70;;;;;;;2.55;100.00;99114.56;5122579;27;20043;-52
2022/04/23 03:51:41;;;;;;;36.20;25.58;;;;;;;2.55;100.00;99111.13;5126160;27;20051;-51
2022/04/23 03:54:26;;;;;;;40.10;27.15;;;;;;;2.59;100.00;99112.84;5125966;27;20725;-52
2022/04/23 03:57:11;;;;;;;36.13;25.30;;;;;;;2.63;100.00;99111.09;5126227;27;20054;-52
2022/04/23 03:59:55;;;;;;;38.35;26.33;;;;;;;2.59;100.00;99102.50;5125858;27;20055;-52
2022/04/23 04:02:39;;;;;;;43.88;29.67;;;;;;;2.69;100.00;99111.94;5125804;27;20542;-51
2022/04/23 04:05:28;;;;;;;49.15;30.38;;;;;;;2.74;100.00;99115.38;5125602;27;20469;-51
2022/04/23 04:08:13;;;;;;;46.85;28.92;;;;;;;2.72;100.00;99121.41;5126315;27;20866;-52
2022/04/23 04:10:57;;;;;;;48.80;31.05;;;;;;;2.78;100.00;99122.25;5125539;27;20047;-51
2022/04/23 04:13:43;;;;;;;48.25;29.73;;;;;;;2.76;100.00;99113.66;5125060;27;20043;-51
2022/04/23 04:16:28;;;;;;;49.10;27.48;;;;;;;2.86;100.00;99122.22;5125652;27;20401;-52
2022/04/23 04:19:17;;;;;;;48.15;27.25;;;;;;;2.86;100.00;99119.63;5125516;27;20055;-52
2022/04/23 04:22:03;;;;;;;42.50;26.42;;;;;;;2.90;100.00;99115.31;5109056;27;20053;-52
2022/04/23 04:24:48;;;;;;;37.92;25.95;;;;;;;2.95;100.00;99116.13;5125511;27;20035;-52
2022/04/23 04:27:34;;;;;;;44.45;26.77;;;;;;;2.95;100.00;99110.94;5127488;27;20055;-51
2022/04/23 04:30:18;;;;;;;38.15;26.92;;;;;;;2.94;100.00;99117.00;5128629;27;20047;-52
2022/04/23 04:33:03;;;;;;;38.63;27.58;;;;;;;3.11;100.00;99107.41;5127367;27;20046;-51
2022/04/23 04:35:47;;;;;;;35.45;24.77;;;;;;;3.50;100.00;99126.97;5127269;27;20047;-51
2022/04/23 04:38:31;;;;;;;35.05;24.92;;;;;;;3.75;100.00;99124.22;5126440;27;20125;-51
2022/04/23 04:41:16;;;;;;;41.78;25.80;;;;;;;4.08;100.00;99120.44;5126926;27;20047;-51
2022/04/23 04:44:00;;;;;;;30.63;22.45;;;;;;;4.58;100.00;99121.66;5126382;27;20051;-52
2022/04/23 04:46:45;;;;;;;28.38;21.15;;;;;;;5.22;100.00;99116.50;5113118;27;20059;-51
2022/04/23 04:49:29;;;;;;;29.48;20.92;;;;;;;6.08;100.00;99118.63;5127010;27;20043;-51
2022/04/23 04:52:14;;;;;;;27.83;18.55;;;;;;;6.93;100.00;99118.69;5127686;27;20055;-52
2022/04/23 04:54:58;;;;;;;29.40;18.60;;;;;;;7.64;100.00;99112.75;5124009;27;20055;-51
2022/04/23 04:57:42;;;;;;;28.13;18.25;;;;;;;7.61;100.00;99123.25;5126515;27;20047;-52
2022/04/23 05:00:28;;;;;;;24.25;18.55;;;;;;;8.28;100.00;99123.28;5124972;27;20065;-51
2022/04/23 05:03:12;;;;;;;22.95;17.52;;;;;;;9.20;100.00;99117.25;5125557;27;20047;-50
2022/04/23 05:05:57;;;;;;;20.35;16.60;;;;;;;9.89;100.00;99113.28;5125351;27;20047;-52
2022/04/23 05:08:42;;;;;;;21.02;17.08;;;;;;;10.42;100.00;99112.38;5108808;27;20055;-51
2022/04/23 05:11:26;;;;;;;23.48;17.00;;;;;;;10.90;100.00;99117.63;5125884;27;20047;-51
2022/04/23 05:14:11;;;;;;;21.02;16.42;;;;;;;11.27;100.00;99108.34;5126403;27;20378;-52
2022/04/23 05:16:56;;;;;;;18.40;14.65;;;;;;;11.01;100.00;99119.81;5124792;27;20043;-52
2022/04/23 05:19:40;;;;;;;17.92;14.02;;;;;;;11.69;100.00;99118.91;5126097;27;20127;-52
2022/04/23 05:22:25;;;;;;;21.45;14.38;;;;;;;12.09;100.00;99121.69;5124774;27;20397;-51
2022/04/23 05:25:10;;;;;;;17.70;14.48;;;;;;;12.53;100.00;99116.31;5125104;27;20759;-51
2022/04/23 05:27:55;;;;;;;18.38;14.85;;;;;;;12.91;100.00;99114.59;5125315;27;20046;-52
2022/04/23 05:30:39;;;;;;;19.83;13.88;;;;;;;13.55;100.00;99118.63;5124982;27;20486;-53
2022/04/23 05:33:24;;;;;;;18.50;13.75;;;;;;;13.39;100.00;99118.53;5123514;27;20529;-53
2022/04/23 05:36:09;;;;;;;17.40;13.80;;;;;;;13.54;100.00;99122.19;5125020;27;20039;-52
2022/04/23 05:38:54;;;;;;;15.38;12.98;;;;;;;14.25;100.00;99114.31;5123494;27;20042;-51
2022/04/23 05:41:38;;;;;;;19.65;14.05;;;;;;;14.68;100.00;99109.47;5123261;27;20382;-52
2022/04/23 05:44:23;;;;;;;22.95;14.68;;;;;;;14.45;90.54;99108.84;5124200;27;20046;-54
2022/04/23 05:47:07;;;;;;;21.48;14.07;;;;;;;14.35;90.20;99120.81;5124378;27;20447;-52
2022/04/23 05:49:51;;;;;;;23.92;16.13;;;;;;;14.68;86.58;99118.22;5123423;27;20055;-52
2022/04/23 05:52:37;;;;;;;23.15;16.55;;;;;;;14.45;84.01;99113.28;5123915;27;20058;-52
2022/04/23 05:55:21;;;;;;;19.17;14.57;;;;;;;14.92;81.26;99112.59;5123435;27;20516;-53
2022/04/23 05:58:06;;;;;;;20.60;14.45;;;;;;;15.43;81.60;99119.41;5123667;27;20047;-54
2022/04/23 06:00:51;;;;;;;17.65;12.63;;;;;;;14.53;78.68;99112.91;5124301;27;20039;-54
2022/04/23 06:03:35;;;;;;;17.00;13.10;;;;;;;15.82;79.18;99112.84;5124386;27;20055;-53
2022/04/23 06:06:20;;;;;;;15.93;12.15;;;;;;;15.93;75.28;99121.97;5123205;27;20070;-53
2022/04/23 06:09:05;;;;;;;14.82;12.30;;;;;;;16.82;76.88;99117.53;5124793;27;20054;-53
2022/04/23 06:11:49;;;;;;;16.00;12.30;;;;;;;17.26;76.39;99128.00;5106659;27;20059;-53
2022/04/23 06:14:33;;;;;;;14.50;11.45;;;;;;;17.66;70.86;99128.09;5122140;27;20046;-52
2022/04/23 06:17:24;;;;;;;13.02;10.82;;;;;;;17.37;69.33;99123.81;5107467;27;20043;-52
2022/04/23 06:20:09;;;;;;;13.73;10.52;;;;;;;17.60;70.24;99119.69;5123965;27;20058;-53
2022/04/23 06:22:53;;;;;;;12.38;10.48;;;;;;;15.87;65.20;99121.38;5122037;27;20047;-53
2022/04/23 06:25:38;;;;;;;10.68;8.20;;;;;;;16.45;65.05;99116.25;5121942;27;20441;-53
2022/04/23 06:28:22;;;;;;;10.15;8.60;;;;;;;16.77;58.62;99119.63;5123588;27;20141;-53
2022/04/23 06:31:07;;;;;;;9.93;7.90;;;;;;;16.63;62.16;99109.84;5123656;27;20051;-53
2022/04/23 06:33:51;;;;;;;10.40;8.93;;;;;;;16.26;61.42;99116.50;5122932;27;20047;-53
2022/04/23 06:36:39;;;;;;;9.48;7.28;;;;;;;17.54;61.87;99112.97;5122950;27;20058;-53
2022/04/23 06:39:23;;;;;;;11.13;8.10;;;;;;;16.81;60.00;99110.56;5124162;27;20047;-53
2022/04/23 06:42:08;;;;;;;7.82;6.40;;;;;;;17.50;59.39;99106.19;5125370;27;20047;-53
2022/04/23 06:44:57;;;;;;;9.45;7.35;;;;;;;17.14;57.23;99107.59;5121915;27;20050;-53
2022/04/23 06:47:41;;;;;;;7.55;6.38;;;;;;;17.55;56.67;99105.88;5124480;27;20063;-53
2022/04/23 06:50:25;;;;;;;8.80;6.47;;;;;;;17.51;56.56;99105.25;5124939;27;20538;-52
2022/04/23 06:53:10;;;;;;;8.35;6.88;;;;;;;17.10;57.98;99100.81;5125573;27;20096;-53
2022/04/23 06:55:54;;;;;;;7.78;6.45;;;;;;;17.62;56.63;99097.47;5123092;27;20069;-53
2022/04/23 06:58:39;;;;;;;8.18;5.72;;;;;;;17.88;55.61;99105.53;5123762;27;20050;-53
2022/04/23 07:01:24;;;;;;;5.85;5.20;;;;;;;17.10;55.94;99102.59;5121805;27;20047;-53
2022/04/23 07:04:09;;;;;;;6.78;6.07;;;;;;;17.61;56.46;99103.69;5124366;27;20050;-53
2022/04/23 07:06:53;;;;;;;8.15;6.05;;;;;;;17.75;54.41;99101.00;5125348;27;20049;-53
2022/04/23 07:09:38;;;;;;;7.50;6.00;;;;;;;18.07;55.22;99095.41;5124999;27;20051;-54
2022/04/23 07:12:22;;;;;;;5.85;5.25;;;;;;;18.39;53.82;99095.88;5124721;27;20071;-53
2022/04/23 07:15:07;;;;;;;7.22;5.93;;;;;;;17.45;53.52;99101.22;5122489;27;20039;-53
2022/04/23 07:17:52;;;;;;;9.35;5.72;;;;;;;17.20;54.67;99098.44;5119859;27;20055;-53
2022/04/23 07:20:39;;;;;;;7.18;5.47;;;;;;;17.90;53.10;99099.16;5119284;27;20043;-53
2022/04/23 07:26:27;;;;;;;7.28;5.03;;;;;;;18.12;51.33;99093.28;5119052;27;20051;-54
2022/04/23 07:29:11;;;;;;;7.13;5.30;;;;;;;18.34;51.28;99092.69;5120093;28;20606;-53
2022/04/23 07:31:57;;;;;;;6.60;5.63;;;;;;;18.58;49.80;99091.94;5120418;28;20051;-54
2022/04/23 07:37:45;;;;;;;;;;;;;;;18.54;49.67;99086.00;5119927;28;20059;-54
2022/04/23 07:40:29;;;;;;;6.90;4.90;;;;;;;18.95;49.12;99073.47;5119148;28;19923;-53
2022/04/23 07:43:15;;;;;;;8.88;6.47;;;;;;;18.69;48.55;99076.16;5118341;28;20051;-54
2022/04/23 07:45:59;;;;;;;6.03;5.30;;;;;;;18.45;47.53;99068.94;5102099;28;20050;-55
2022/04/23 07:48:44;;;;;;;6.45;5.57;;;;;;;19.02;46.57;99069.44;5117439;28;20542;-55
2022/04/23 07:51:28;;;;;;;9.30;5.88;;;;;;;18.87;47.11;99066.91;5118637;28;20043;-54
2022/04/23 07:54:14;;;;;;;7.38;6.28;;;;;;;18.55;49.20;99074.44;5117239;28;20050;-54
2022/04/23 07:56:59;;;;;;;7.80;6.45;;;;;;;18.35;48.78;99067.03;5119713;28;20043;-54
2022/04/23 07:59:44;;;;;;;7.78;5.38;;;;;;;19.40;48.19;99066.66;5119930;28;20468;-53
2022/04/23 08:02:28;;;;;;;6.20;5.43;;;;;;;20.13;45.98;99071.00;5119966;28;20051;-54
2022/04/23 08:05:13;;;;;;;7.97;6.82;;;;;;;20.19;43.95;99075.84;5118768;28;20092;-53
2022/04/23 08:07:58;;;;;;;7.35;5.82;;;;;;;20.30;43.84;99067.88;5121224;28;20047;-53
2022/04/23 08:10:43;;;;;;;7.07;6.05;;;;;;;20.16;45.38;99062.78;5119776;28;20047;-53
2022/04/23 08:13:28;;;;;;;8.93;7.57;;;;;;;19.82;44.87;99064.47;5119688;28;20057;-54
2022/04/23 08:16:12;;;;;;;6.00;5.40;;;;;;;19.84;45.36;99063.41;5118849;28;20055;-53
2022/04/23 08:18:57;;;;;;;6.95;5.95;;;;;;;20.12;44.57;99064.00;5117676;28;20916;-53
2022/04/23 08:21:42;;;;;;;9.30;6.43;;;;;;;19.38;44.32;99055.31;5120558;28;20051;-54
2022/04/23 08:24:26;;;;;;;7.25;6.10;;;;;;;19.62;46.38;99056.16;5119119;28;20114;-53
2022/04/23 08:27:11;;;;;;;8.77;6.97;;;;;;;18.71;46.97;99053.00;5101757;28;20077;-53
2022/04/23 08:33:04;;;;;;;9.27;7.30;;;;;;;19.41;46.83;99044.47;5119625;28;20751;-53
2022/04/23 08:35:48;;;;;;;9.55;6.97;;;;;;;19.64;44.67;99047.28;5121003;27;20146;-53
2022/04/23 08:38:33;;;;;;;14.55;9.45;;;;;;;19.03;46.55;99047.25;5122541;27;20055;-53
2022/04/23 08:41:17;;;;;;;13.77;10.27;;;;;;;19.16;46.51;99050.72;5124943;27;20039;-53
2022/04/23 08:44:05;;;;;;;9.80;7.10;;;;;;;19.16;44.40;99042.75;5125504;27;20058;-53
2022/04/23 08:46:53;;;;;;;7.82;6.95;;;;;;;19.07;44.92;99043.41;5124294;27;20051;-53
2022/04/23 08:49:42;;;;;;;7.45;6.65;;;;;;;18.62;45.50;99027.13;5124487;27;20669;-53
2022/04/23 08:52:32;;;;;;;12.68;9.55;;;;;;;18.60;46.13;99035.19;5122507;27;20073;-53
2022/04/23 08:55:19;;;;;;;7.30;6.55;;;;;;;17.83;45.24;99033.47;5125179;27;20051;-53
2022/04/23 08:58:04;;;;;;;8.60;6.63;;;;;;;17.47;46.61;99041.06;5124795;27;20537;-52
2022/04/23 09:00:49;;;;;;;11.18;7.68;;;;;;;17.92;47.90;99036.34;5124622;27;20036;-54
2022/04/23 09:03:33;;;;;;;12.02;9.40;;;;;;;18.08;46.45;99022.06;5124634;27;20047;-52
2022/04/23 09:06:18;;;;;;;12.48;7.90;;;;;;;18.05;46.15;99012.53;5124907;27;20043;-53
2022/04/23 09:09:12;;;;;;;10.55;8.15;;;;;;;18.42;47.19;99023.22;5124622;27;20078;-53
2022/04/23 09:11:58;;;;;;;9.65;6.85;;;;;;;18.34;46.93;99026.41;5123724;27;20043;-53
2022/04/23 09:14:45;;;;;;;10.80;8.70;;;;;;;18.17;48.10;99024.09;5122659;27;20047;-52
2022/04/23 09:23:41;;;;;;;8.18;6.50;;;;;;;17.98;48.57;99029.78;5123124;27;20047;-51
2022/04/23 09:26:28;;;;;;;6.47;5.78;;;;;;;17.64;47.98;99031.16;5123775;27;20042;-52
2022/04/23 09:29:15;;;;;;;6.65;5.95;;;;;;;17.87;47.98;99025.19;5123513;27;20092;-51
2022/04/23 09:32:19;;;;;;;6.57;5.95;;;;;;;17.55;48.61;99029.13;5123453;27;20035;-50
2022/04/23 09:35:12;;;;;;;8.85;7.57;;;;;;;17.94;48.50;99020.38;5123158;27;20475;-52
2022/04/23 09:38:11;;;;;;;8.23;6.63;;;;;;;17.39;49.07;99027.50;5124835;27;20078;-50
2022/04/23 09:40:58;;;;;;;10.00;6.75;;;;;;;16.67;51.38;99010.03;5124349;27;21111;-51
2022/04/23 09:43:46;;;;;;;8.27;6.85;;;;;;;17.36;50.63;99018.91;5120260;27;20405;-51
2022/04/23 09:46:46;;;;;;;7.97;7.03;;;;;;;17.82;49.69;99014.09;5122733;27;20043;-51
2022/04/23 09:49:30;;;;;;;7.97;7.18;;;;;;;17.88;49.52;99023.44;5123622;27;20055;-52
2022/04/23 09:52:15;;;;;;;9.05;7.43;;;;;;;17.47;47.65;99026.97;5123735;27;20051;-51
2022/04/23 09:55:02;;;;;;;10.18;7.05;;;;;;;17.48;49.81;99026.03;5123185;27;20047;-51
2022/04/23 09:57:47;;;;;;;7.60;6.80;;;;;;;17.11;49.81;99014.34;5121552;27;20080;-53
2022/04/23 10:00:35;;;;;;;7.63;6.82;;;;;;;17.77;49.63;99018.81;5123550;27;20051;-52
2022/04/23 10:03:24;;;;;;;6.93;6.22;;;;;;;18.18;48.73;99015.19;5123318;27;20047;-51
2022/04/23 10:06:09;;;;;;;9.20;6.50;;;;;;;18.40;49.04;99009.25;5122657;27;20047;-52
2022/04/23 10:08:57;;;;;;;7.22;6.53;;;;;;;18.41;47.63;99011.78;5123668;27;20043;-51
2022/04/23 10:11:42;;;;;;;7.38;5.78;;;;;;;18.52;48.65;99023.44;5123016;27;20051;-52
2022/04/23 10:14:30;;;;;;;7.07;6.38;;;;;;;19.03;47.60;99026.88;5124107;27;20059;-52
2022/04/23 10:17:18;;;;;;;9.77;7.40;;;;;;;18.58;47.39;99017.69;5121957;27;20450;-52
2022/04/23 10:20:04;;;;;;;7.63;6.40;;;;;;;18.79;47.72;99013.56;5123338;27;20486;-52
2022/04/23 10:23:30;;;;;;;9.30;7.50;;;;;;;18.81;47.41;99022.25;5122947;27;20047;-52
2022/04/23 10:26:34;;;;;;;7.78;7.07;;;;;;;18.40;46.89;99022.50;5121332;27;20077;-51
2022/04/23 10:29:21;;;;;;;8.45;7.55;;;;;;;18.45;47.60;99015.06;5122951;27;20047;-52
2022/04/23 10:32:12;;;;;;;9.15;8.07;;;;;;;18.17;49.65;99022.28;5121685;27;20062;-52
2022/04/23 10:34:56;;;;;;;8.98;8.07;;;;;;;17.78;50.45;99025.84;5122246;27;20042;-52
2022/04/23 10:37:41;;;;;;;8.52;7.07;;;;;;;18.58;47.82;99017.69;5122849;27;20608;-51
2022/04/23 10:40:25;;;;;;;10.10;8.32;;;;;;;17.58;49.84;99018.31;5120821;27;20050;-52
2022/04/23 10:43:12;;;;;;;13.90;7.20;;;;;;;17.81;49.46;99019.47;5121436;27;20055;-52
2022/04/23 10:45:57;;;;;;;7.13;6.43;;;;;;;18.18;48.36;99015.19;5122184;27;20070;-52
2022/04/23 10:48:44;;;;;;;6.72;6.03;;;;;;;18.82;46.94;99017.81;5121850;27;20047;-52
2022/04/23 10:51:43;;;;;;;6.30;5.70;;;;;;;19.11;47.25;99018.38;5121682;27;20051;-52
2022/04/23 10:54:40;;;;;;;6.85;6.15;;;;;;;18.78;48.82;99021.63;5121237;27;22320;-52
2022/04/23 10:57:25;;;;;;;6.10;5.50;;;;;;;18.01;48.18;99018.16;5121560;27;20347;-53
2022/04/23 11:00:16;;;;;;;6.15;4.10;;;;;;;17.83;45.99;99022.88;5122689;27;20054;-53
2022/04/23 11:03:08;;;;;;;4.38;3.72;;;;;;;17.55;49.08;99005.28;5122102;27;20454;-52
2022/04/23 11:12:37;;;;;;;5.25;4.75;;;;;;;17.62;48.97;99004.78;5122193;27;20047;-52
2022/04/23 11:15:21;;;;;;;6.70;5.10;;;;;;;17.63;48.38;99008.28;5121941;27;20142;-52
2022/04/23 11:18:06;;;;;;;7.60;5.50;;;;;;;17.96;47.68;98997.25;5121635;27;20051;-52
2022/04/23 11:20:54;;;;;;;11.93;6.10;;;;;;;17.98;47.72;98998.84;5122150;27;20047;-52
2022/04/23 11:23:42;;;;;;;7.00;6.35;;;;;;;18.32;47.73;98995.66;5121355;27;20051;-53
2022/04/23 11:26:41;;;;;;;6.38;4.80;;;;;;;18.52;46.08;98999.56;5122156;27;20074;-53
2022/04/23 11:29:27;;;;;;;9.43;7.22;;;;;;;18.24;47.56;99003.31;5120522;28;20497;-52
2022/04/23 11:32:12;;;;;;;7.15;5.35;;;;;;;18.01;47.26;99003.09;5121066;28;20052;-52
2022/04/23 11:35:03;;;;;;;5.30;4.80;;;;;;;17.76;46.71;99009.16;5118589;28;20053;-53
2022/04/23 11:37:47;;;;;;;5.78;5.00;;;;;;;17.59;47.79;99006.81;5118987;28;20054;-53
2022/04/23 11:40:34;;;;;;;4.32;3.95;;;;;;;17.64;45.88;99002.03;5119930;28;20051;-52
2022/04/23 11:43:33;;;;;;;4.88;4.45;;;;;;;17.73;49.05;98998.78;5119761;28;20042;-53
2022/04/23 11:46:17;;;;;;;4.80;4.03;;;;;;;18.67;45.54;98993.19;5120588;28;20099;-53
2022/04/23 11:49:02;;;;;;;6.68;4.95;;;;;;;18.75;46.60;98997.97;5119529;28;20405;-52
2022/04/23 11:51:47;;;;;;;5.35;4.85;;;;;;;18.86;44.85;98990.09;5118998;28;20081;-52
2022/04/23 11:54:34;;;;;;;8.63;5.63;;;;;;;19.22;45.77;98993.69;5120199;28;20051;-52
2022/04/23 11:57:19;;;;;;;4.93;4.03;;;;;;;18.98;43.50;98988.34;5118176;28;20050;-53
2022/04/23 12:00:04;;;;;;;5.63;4.40;;;;;;;18.19;44.56;98988.56;5119792;28;20088;-52
2022/04/23 12:02:50;;;;;;;5.22;3.50;;;;;;;18.16;44.67;98998.53;5120175;28;20214;-53
2022/04/23 12:05:35;;;;;;;6.05;3.75;;;;;;;18.20;46.02;98994.72;5119024;28;20055;-53
2022/04/23 12:08:21;;;;;;;4.15;3.75;;;;;;;18.03;45.87;98992.38;5119263;28;20059;-53
2022/04/23 12:11:28;;;;;;;8.48;2.90;;;;;;;18.26;45.76;98986.31;5122175;27;20422;-53
2022/04/23 12:14:13;;;;;;;5.28;4.20;;;;;;;17.78;46.82;98994.06;5123696;27;20035;-51
2022/04/23 12:17:06;;;;;;;4.57;4.18;;;;;;;17.64;46.83;98989.63;5121353;27;20061;-51
2022/04/23 12:19:54;;;;;;;6.22;4.38;;;;;;;17.64;46.74;98988.78;5122685;27;20042;-52
2022/04/23 12:22:39;;;;;;;5.15;4.03;;;;;;;17.48;48.21;98983.66;5123329;27;20046;-52
2022/04/23 12:25:25;;;;;;;6.53;4.35;;;;;;;17.46;48.40;98982.94;5120488;27;20092;-52
2022/04/23 12:40:46;;;;;;;3.95;3.53;;;;;;;19.48;44.47;98960.75;5120466;27;20047;-53
2022/04/23 12:43:32;;;;;;;5.47;4.72;;;;;;;18.68;44.60;98971.00;5122157;27;20051;-52
2022/04/23 12:46:16;;;;;;;3.97;3.50;;;;;;;18.44;44.74;98965.66;5123296;27;20061;-52
2022/04/23 12:49:03;;;;;;;4.15;3.85;;;;;;;18.26;46.54;98974.88;5121367;27;20113;-52
2022/04/23 12:51:55;;;;;;;5.78;5.18;;;;;;;18.16;47.01;98966.72;5121396;27;20579;-53
2022/04/23 12:54:40;;;;;;;11.68;8.68;;;;;;;17.98;46.38;98968.88;5122683;27;20092;-53
2022/04/23 12:57:24;;;;;;;13.07;8.85;;;;;;;18.05;46.27;98954.22;5121828;27;20066;-52
2022/04/23 13:00:11;;;;;;;13.52;11.23;;;;;;;17.67;46.85;98952.38;5121351;27;20051;-52
2022/04/23 13:02:59;;;;;;;7.05;5.85;;;;;;;18.11;46.66;98950.31;5100646;27;20031;-52
2022/04/23 13:05:44;;;;;;;10.85;7.35;;;;;;;18.29;47.09;98951.66;5121732;27;20043;-51
2022/04/23 13:11:32;;;;;;;;;;;;;;;17.86;46.60;98956.44;5122471;27;20104;-53
2022/04/23 13:14:16;;;;;;;15.43;10.80;;;;;;;17.74;47.70;98943.06;5104897;27;19923;-52
2022/04/23 13:17:00;;;;;;;6.57;5.88;;;;;;;17.91;46.26;98938.47;5121057;27;20051;-51
2022/04/23 13:19:45;;;;;;;6.97;5.82;;;;;;;18.37;45.76;98943.19;5122381;27;20059;-52
2022/04/23 13:22:30;;;;;;;9.95;8.10;;;;;;;18.05;47.04;98943.63;5121255;27;20039;-52
2022/04/23 13:25:17;;;;;;;8.10;6.72;;;;;;;18.23;45.81;98946.78;5110975;27;20061;-51
2022/04/23 13:28:02;;;;;;;6.07;4.40;;;;;;;18.40;45.52;98946.47;5123471;27;20051;-52